Time;durP1;ratioP1;P1;durP2;ratioP2;P2;SDS_P1;SDS_P2;PMS_P1;PMS_P2;Temp;Humidity;BMP_temperature;BMP_pressure;BME280_temperature;BME280_humidity;BME280_pressure;Samples;Min_cycle;Max_cycle;Signal;HPM_P1;HPM_P2
2022/01/23 00:02:27;;;;;;;8.90;5.50;;;;;;;2.88;100.00;152104.59;5091846;28;20437;-80
2022/01/23 00:05:07;;;;;;;8.57;6.00;;;;;;;2.90;100.00;152109.75;5089812;28;20447;-80
2022/01/23 00:07:44;;;;;;;6.13;4.87;;;;;;;2.88;100.00;152105.91;5058207;28;20445;-80
2022/01/23 00:10:20;;;;;;;8.03;5.67;;;;;;;2.86;100.00;152099.47;5091945;28;20923;-80
2022/01/23 00:13:07;;;;;;;8.23;6.37;;;;;;;2.85;100.00;152098.19;5107507;28;20946;-79
2022/01/23 00:18:50;;;;;;;11.00;6.43;;;;;;;2.87;100.00;152102.00;5000499;28;21008;-80
2022/01/23 00:21:26;;;;;;;7.50;5.80;;;;;;;2.88;100.00;152104.59;5015856;28;20838;-80
2022/01/23 00:32:42;;;;;;;7.27;5.40;;;;;;;2.89;100.00;152107.16;5058322;28;20827;-79
2022/01/23 00:35:18;;;;;;;6.60;5.03;;;;;;;2.91;100.00;152113.56;5073162;28;20441;-80
2022/01/23 00:37:55;;;;;;;6.47;4.90;;;;;;;2.90;100.00;152109.75;5058084;28;20433;-80
2022/01/23 00:40:31;;;;;;;9.27;6.10;;;;;;;2.90;100.00;152109.75;5107792;28;20976;-80
2022/01/23 00:43:14;;;;;;;7.73;5.43;;;;;;;2.92;100.00;152114.88;5056601;28;20442;-80
2022/01/23 00:45:57;;;;;;;8.90;6.00;;;;;;;2.90;100.00;152109.75;5101399;27;20452;-79
2022/01/23 00:48:36;;;;;;;7.07;5.23;;;;;;;2.88;100.00;152104.59;5063950;28;20453;-79
2022/01/23 00:51:11;;;;;;;9.77;6.90;;;;;;;2.91;100.00;152112.34;5091086;28;20441;-80
2022/01/23 00:53:47;;;;;;;10.23;6.60;;;;;;;2.93;100.00;152117.47;5088750;28;20421;-79
2022/01/23 00:56:22;;;;;;;10.43;6.83;;;;;;;2.88;100.00;152104.59;5072979;28;20444;-80
2022/01/23 00:58:59;;;;;;;9.53;6.87;;;;;;;2.88;100.00;152104.59;5107059;28;20459;-80
2022/01/23 01:01:36;;;;;;;11.53;7.40;;;;;;;2.86;100.00;152099.47;5106710;28;20445;-80
2022/01/23 01:04:11;;;;;;;7.87;6.70;;;;;;;2.86;100.00;152100.72;5073089;28;20841;-80
2022/01/23 01:06:47;;;;;;;9.13;6.40;;;;;;;2.83;100.00;152091.75;5065437;28;21012;-80
2022/01/23 01:09:23;;;;;;;8.43;6.53;;;;;;;2.83;100.00;152093.00;5065723;28;20437;-80
2022/01/23 01:12:03;;;;;;;7.80;5.90;;;;;;;2.87;100.00;152103.31;5106420;28;20444;-80
2022/01/23 01:14:58;;;;;;;9.80;7.30;;;;;;;2.88;100.00;152104.59;5099727;28;20469;-80
2022/01/23 01:30:08;;;;;;;8.87;6.87;;;;;;;2.89;100.00;152108.44;5106652;28;20791;-80
2022/01/23 01:32:08;;;;;;;8.57;6.90;;;;;;;2.94;100.00;152120.00;5072282;28;20413;-80
2022/01/23 01:34:52;;;;;;;10.47;7.27;;;;;;;2.94;100.00;152121.31;5056842;28;20442;-80
2022/01/23 01:37:27;;;;;;;11.60;7.50;;;;;;;2.94;100.00;152120.00;5090423;28;20849;-80
2022/01/23 01:40:03;;;;;;;9.20;7.07;;;;;;;2.94;100.00;152120.00;5089985;28;20482;-80
2022/01/23 01:42:39;;;;;;;9.77;6.63;;;;;;;2.93;100.00;152118.75;5070086;28;20805;-80
2022/01/23 01:45:21;;;;;;;9.60;6.80;;;;;;;2.95;100.00;152122.59;5056826;28;20434;-80
2022/01/23 01:48:05;;;;;;;9.40;6.57;;;;;;;2.94;100.00;152120.00;5090051;28;20438;-80
2022/01/23 01:50:46;;;;;;;9.13;6.00;;;;;;;2.92;100.00;152114.88;5056542;28;20499;-80
2022/01/23 01:53:23;;;;;;;9.33;6.70;;;;;;;2.94;100.00;152120.00;5055589;28;20436;-80
2022/01/23 01:55:58;;;;;;;8.50;5.53;;;;;;;2.95;100.00;152123.91;5056118;28;20864;-80
2022/01/23 02:10:49;;;;;;;8.10;5.13;;;;;;;2.99;100.00;152132.91;5055969;28;20446;-80
2022/01/23 02:13:30;;;;;;;8.43;6.40;;;;;;;2.98;100.00;152131.63;5050995;28;20469;-80
2022/01/23 02:16:34;;;;;;;6.60;5.03;;;;;;;2.95;100.00;152123.91;5079324;28;20449;-80
2022/01/23 02:25:17;;;;;;;9.53;6.20;;;;;;;3.04;100.00;152145.78;5072469;28;20767;-80
2022/01/23 02:51:11;;;;;;;10.10;7.60;;;;;;;2.80;100.00;152084.03;5056263;28;20990;-80
2022/01/23 02:54:07;;;;;;;10.23;8.17;;;;;;;2.79;100.00;152081.44;5089828;28;20927;-80
2022/01/23 02:56:48;;;;;;;11.23;8.10;;;;;;;2.82;100.00;152089.16;5071879;28;20442;-79
2022/01/23 02:59:26;;;;;;;12.47;7.27;;;;;;;2.80;100.00;152084.03;5054997;28;20448;-80
2022/01/23 03:02:14;;;;;;;10.97;6.90;;;;;;;2.76;100.00;152075.00;5088935;28;20433;-80
2022/01/23 03:05:24;;;;;;;11.37;6.23;;;;;;;2.86;100.00;152099.47;5089729;28;20449;-80
2022/01/23 03:08:04;;;;;;;11.90;7.37;;;;;;;2.80;100.00;152084.03;5070882;28;20441;-80
2022/01/23 03:10:43;;;;;;;11.50;8.17;;;;;;;2.73;100.00;152065.97;5088979;28;20919;-80
2022/01/23 03:16:27;;;;;;;12.97;8.07;;;;;;;2.79;100.00;152082.72;5082106;28;20569;-79
2022/01/23 03:25:10;;;;;;;10.90;7.30;;;;;;;2.83;100.00;152093.00;5104344;28;20500;-80
2022/01/23 03:28:05;;;;;;;13.37;8.50;;;;;;;2.84;100.00;152095.59;5088324;28;20794;-80
2022/01/23 03:30:52;;;;;;;10.73;8.07;;;;;;;2.88;100.00;152105.91;5083437;28;20433;-80
2022/01/23 03:33:28;;;;;;;11.90;8.10;;;;;;;2.90;100.00;152109.75;5105120;28;20458;-80
2022/01/23 03:36:04;;;;;;;12.17;8.23;;;;;;;2.88;100.00;152105.91;5071220;28;20543;-79
2022/01/23 03:38:40;;;;;;;14.40;7.40;;;;;;;2.90;100.00;152109.75;5049615;28;20881;-79
2022/01/23 03:41:16;;;;;;;12.43;8.67;;;;;;;2.91;100.00;152112.34;5065990;28;20480;-80
2022/01/23 03:43:52;;;;;;;13.20;8.00;;;;;;;2.93;100.00;152117.47;5104024;28;20437;-80
2022/01/23 03:46:48;;;;;;;11.77;8.90;;;;;;;2.93;100.00;152118.75;5104329;28;20441;-80
2022/01/23 03:49:32;;;;;;;13.80;9.10;;;;;;;3.04;100.00;152145.78;5114370;28;20444;-80
2022/01/23 03:52:34;;;;;;;14.87;9.63;;;;;;;2.90;100.00;152111.03;5075703;28;20787;-79
2022/01/23 03:55:11;;;;;;;13.97;9.40;;;;;;;2.89;100.00;152107.16;5064575;28;20459;-79
2022/01/23 03:57:47;;;;;;;12.53;8.33;;;;;;;2.96;100.00;152126.50;5054704;28;20449;-80
2022/01/23 04:00:23;;;;;;;12.90;8.40;;;;;;;2.82;100.00;152090.44;5088233;28;20465;-80
2022/01/23 04:03:00;;;;;;;10.10;7.77;;;;;;;2.78;100.00;152078.88;5104164;28;20904;-80
2022/01/23 04:05:37;;;;;;;13.80;8.60;;;;;;;2.77;100.00;152076.28;5070526;28;20456;-80
2022/01/23 04:08:15;;;;;;;12.70;8.43;;;;;;;2.77;100.00;152076.28;5058516;28;20448;-80
2022/01/23 04:10:50;;;;;;;11.23;8.27;;;;;;;2.78;100.00;152078.88;5051248;28;20446;-80
2022/01/23 04:13:35;;;;;;;10.60;8.57;;;;;;;2.77;100.00;152076.28;5061392;28;20459;-79
2022/01/23 04:16:29;;;;;;;12.97;8.17;;;;;;;2.80;100.00;152084.03;5048185;28;20451;-79
2022/01/23 04:19:17;;;;;;;12.63;8.40;;;;;;;2.81;100.00;152086.56;5052695;28;20451;-79
2022/01/23 04:33:42;;;;;;;13.27;9.30;;;;;;;2.85;100.00;152098.19;5050499;28;20442;-80
2022/01/23 04:59:40;;;;;;;14.83;10.47;;;;;;;2.89;100.00;152108.44;5038856;28;20866;-80
2022/01/23 05:02:42;;;;;;;16.00;11.13;;;;;;;2.89;100.00;152107.16;5041861;28;20931;-80
2022/01/23 05:05:12;;;;;;;13.17;9.80;;;;;;;2.89;100.00;152107.16;5056903;28;20448;-80
2022/01/23 05:07:48;;;;;;;13.40;10.10;;;;;;;2.90;100.00;152109.75;5107515;28;20468;-80
2022/01/23 05:10:28;;;;;;;13.87;10.37;;;;;;;2.89;100.00;152107.16;5073212;28;20445;-80
2022/01/23 05:13:31;;;;;;;14.67;11.17;;;;;;;2.89;100.00;152107.16;5056993;28;20476;-80
2022/01/23 05:16:07;;;;;;;15.83;11.70;;;;;;;2.89;100.00;152107.16;5056790;28;20971;-79
2022/01/23 05:18:42;;;;;;;15.90;12.10;;;;;;;2.87;100.00;152103.31;5056952;28;20437;-80
2022/01/23 05:21:45;;;;;;;16.77;10.63;;;;;;;2.87;100.00;152103.31;5071809;28;20485;-80
2022/01/23 05:24:24;;;;;;;13.10;9.73;;;;;;;2.90;100.00;152109.75;5080604;28;20451;-79
2022/01/23 05:27:03;;;;;;;16.00;11.17;;;;;;;2.88;100.00;152104.59;5106299;28;20467;-79
2022/01/23 05:29:39;;;;;;;17.57;11.70;;;;;;;2.88;100.00;152104.59;5056859;28;20441;-79
2022/01/23 05:32:15;;;;;;;14.37;10.60;;;;;;;2.87;100.00;152102.00;5071346;28;20437;-79
2022/01/23 05:34:50;;;;;;;16.53;12.00;;;;;;;2.82;100.00;152089.16;5070932;28;20994;-79
2022/01/23 05:37:33;;;;;;;19.20;12.80;;;;;;;2.83;100.00;152091.75;5055310;28;20945;-80
2022/01/23 05:40:14;;;;;;;17.13;11.50;;;;;;;2.84;100.00;152094.28;5089770;28;20559;-80
2022/01/23 05:42:52;;;;;;;15.43;11.00;;;;;;;2.83;100.00;152093.00;5067544;28;20529;-80
2022/01/23 05:45:29;;;;;;;15.57;10.97;;;;;;;2.83;100.00;152091.75;5053230;28;20533;-79
2022/01/23 05:48:17;;;;;;;16.20;11.07;;;;;;;2.84;100.00;152094.28;5090971;28;20591;-79
2022/01/23 05:51:14;;;;;;;17.53;11.90;;;;;;;2.85;100.00;152096.88;5072239;28;20425;-79
2022/01/23 05:54:02;;;;;;;16.97;11.00;;;;;;;2.86;100.00;152099.47;5087438;28;20478;-79
2022/01/23 05:57:01;;;;;;;14.90;10.50;;;;;;;2.85;100.00;152096.88;5069797;28;20966;-80
2022/01/23 05:59:56;;;;;;;15.30;11.80;;;;;;;2.88;100.00;152104.59;5052402;28;20443;-80
2022/01/23 06:02:32;;;;;;;14.07;10.57;;;;;;;2.88;100.00;152104.59;5037065;28;20411;-79
2022/01/23 06:05:08;;;;;;;15.37;9.87;;;;;;;2.88;100.00;152104.59;5050088;28;20812;-80
2022/01/23 06:07:51;;;;;;;16.93;12.67;;;;;;;2.90;100.00;152109.75;5056146;28;20447;-79
2022/01/23 06:10:28;;;;;;;14.30;10.50;;;;;;;2.88;100.00;152104.59;5055578;28;20445;-80
2022/01/23 06:13:04;;;;;;;15.50;11.73;;;;;;;2.89;100.00;152107.16;5071162;28;20461;-80
2022/01/23 06:15:42;;;;;;;14.47;10.47;;;;;;;2.89;100.00;152107.16;5053925;28;20473;-79
2022/01/23 06:18:18;;;;;;;18.93;12.10;;;;;;;2.87;100.00;152102.00;5071933;28;20414;-79
2022/01/23 06:21:21;;;;;;;16.40;11.90;;;;;;;2.89;100.00;152107.16;5073487;28;20473;-84
2022/01/23 06:24:06;;;;;;;15.60;11.47;;;;;;;2.88;100.00;152105.91;5079046;28;20490;-79
2022/01/23 06:27:02;;;;;;;16.67;10.90;;;;;;;2.88;100.00;152105.91;5070863;28;20438;-80
2022/01/23 06:29:39;;;;;;;13.57;10.63;;;;;;;2.88;100.00;152104.59;5071055;28;20954;-80
2022/01/23 06:32:16;;;;;;;15.87;11.60;;;;;;;2.87;100.00;152102.00;5055579;28;20437;-80
2022/01/23 06:34:51;;;;;;;16.57;12.13;;;;;;;2.87;100.00;152103.31;5054676;28;20445;-79
2022/01/23 06:37:27;;;;;;;19.87;13.07;;;;;;;2.89;100.00;152107.16;5056334;28;20800;-80
2022/01/23 06:40:03;;;;;;;20.03;13.40;;;;;;;2.90;100.00;152109.75;5086685;28;20811;-79
2022/01/23 06:42:57;;;;;;;19.57;13.10;;;;;;;2.90;100.00;152109.75;5104800;28;20453;-80
2022/01/23 06:45:40;;;;;;;18.80;12.53;;;;;;;2.90;100.00;152109.75;5060587;28;20460;-80
2022/01/23 06:48:18;;;;;;;15.87;11.37;;;;;;;2.91;100.00;152112.34;5053690;28;20455;-80
2022/01/23 06:50:53;;;;;;;18.00;12.20;;;;;;;2.93;100.00;152118.75;5046753;28;20927;-80
2022/01/23 06:53:31;;;;;;;17.30;11.47;;;;;;;2.97;100.00;152127.75;5056239;28;20429;-80
2022/01/23 06:56:06;;;;;;;20.10;13.07;;;;;;;2.96;100.00;152126.50;5088826;28;20472;-80
2022/01/23 06:58:42;;;;;;;18.10;12.73;;;;;;;2.94;100.00;152121.31;5050393;28;20448;-79
2022/01/23 07:01:18;;;;;;;16.40;13.20;;;;;;;2.91;100.00;152112.34;5054677;28;20473;-80
2022/01/23 07:04:17;;;;;;;27.30;19.07;;;;;;;2.87;100.00;152103.31;5103887;28;20449;-79
2022/01/23 07:07:18;;;;;;;18.53;13.60;;;;;;;2.87;100.00;152103.31;5069525;28;20449;-79
2022/01/23 07:10:14;;;;;;;20.27;12.93;;;;;;;2.87;100.00;152102.00;5054004;28;20932;-80
2022/01/23 07:13:14;;;;;;;20.87;14.47;;;;;;;2.88;100.00;152104.59;5055081;28;20505;-79
2022/01/23 07:16:08;;;;;;;23.37;17.37;;;;;;;2.91;100.00;152112.34;5070484;28;20450;-80
2022/01/23 07:19:04;;;;;;;19.07;14.63;;;;;;;2.91;100.00;152112.34;5069832;28;20437;-79
2022/01/23 07:21:48;;;;;;;19.53;13.90;;;;;;;2.91;100.00;152112.34;5059224;28;20958;-79
2022/01/23 07:24:25;;;;;;;20.20;14.10;;;;;;;2.92;100.00;152116.16;5034496;28;20438;-80
2022/01/23 07:27:06;;;;;;;17.80;11.83;;;;;;;2.93;100.00;152117.47;5034479;28;20983;-80
2022/01/23 07:29:43;;;;;;;17.33;13.00;;;;;;;2.94;100.00;152121.31;5084651;28;20442;-79
2022/01/23 07:32:20;;;;;;;18.33;13.00;;;;;;;2.95;100.00;152123.91;5059399;28;21065;-80
2022/01/23 07:34:58;;;;;;;18.90;13.60;;;;;;;2.96;100.00;152125.19;5054765;28;20449;-80
2022/01/23 07:37:35;;;;;;;20.33;12.70;;;;;;;2.97;100.00;152127.75;5061810;28;20442;-80
2022/01/23 07:40:30;;;;;;;16.83;12.83;;;;;;;2.98;100.00;152130.31;5070520;28;20442;-80
2022/01/23 07:43:06;;;;;;;20.23;13.00;;;;;;;2.98;100.00;152130.31;5035176;28;20927;-80
2022/01/23 07:46:01;;;;;;;16.73;12.73;;;;;;;2.98;100.00;152130.31;5053958;28;20461;-80
2022/01/23 07:48:56;;;;;;;17.67;13.00;;;;;;;2.96;100.00;152125.19;5065092;28;20454;-79
2022/01/23 07:51:44;;;;;;;19.77;14.20;;;;;;;2.98;100.00;152130.31;5103420;28;20535;-80
2022/01/23 07:54:29;;;;;;;16.27;11.80;;;;;;;2.93;100.00;152118.75;5069495;28;20949;-80
2022/01/23 07:57:29;;;;;;;19.27;13.37;;;;;;;2.95;100.00;152122.59;5084320;28;20449;-80
2022/01/23 08:00:24;;;;;;;17.10;12.17;;;;;;;2.95;100.00;152123.91;5070482;28;20453;-80
2022/01/23 08:03:00;;;;;;;18.83;15.73;;;;;;;3.01;100.00;152138.06;5071798;28;20437;-80
2022/01/23 08:06:12;;;;;;;18.77;13.50;;;;;;;2.96;100.00;152125.19;5056508;28;20454;-79
2022/01/23 08:09:15;;;;;;;18.00;14.03;;;;;;;2.91;100.00;152112.34;5053803;28;20442;-80
2022/01/23 08:11:53;;;;;;;17.73;13.37;;;;;;;2.88;100.00;152104.59;5070824;28;20448;-79
2022/01/23 08:14:29;;;;;;;18.87;13.67;;;;;;;2.90;100.00;152109.75;5070855;28;20476;-80
2022/01/23 08:17:05;;;;;;;20.53;14.87;;;;;;;2.91;100.00;152112.34;5091145;28;20829;-80
2022/01/23 08:19:41;;;;;;;17.07;12.70;;;;;;;2.93;100.00;152118.75;5098287;28;20443;-80
2022/01/23 08:22:17;;;;;;;22.80;14.03;;;;;;;2.97;100.00;152127.75;5084329;28;20994;-79
2022/01/23 08:24:54;;;;;;;18.03;12.57;;;;;;;2.98;100.00;152130.31;5053408;28;20445;-80
2022/01/23 08:27:31;;;;;;;22.20;14.13;;;;;;;3.03;100.00;152143.19;5068735;28;20454;-79
2022/01/23 08:30:07;;;;;;;21.63;14.07;;;;;;;3.02;100.00;152140.59;5064648;28;20448;-83
2022/01/23 08:32:43;;;;;;;25.23;16.10;;;;;;;3.04;100.00;152145.78;5053771;28;20539;-80
2022/01/23 08:35:20;;;;;;;22.20;15.40;;;;;;;3.04;100.00;152145.78;5068431;28;20452;-81
2022/01/23 08:37:55;;;;;;;22.93;13.97;;;;;;;3.02;100.00;152141.91;5072493;28;20647;-79
2022/01/23 08:43:27;;;;;;;19.70;14.43;;;;;;;3.06;100.00;152150.91;5050059;28;20468;-80
2022/01/23 08:46:03;;;;;;;21.00;15.63;;;;;;;3.11;100.00;152163.78;5070793;28;20532;-79
2022/01/23 08:48:40;;;;;;;22.47;15.00;;;;;;;3.12;100.00;152165.06;5073455;28;20944;-80
2022/01/23 08:51:15;;;;;;;19.10;14.80;;;;;;;3.16;100.00;152176.66;5105093;28;20939;-80
2022/01/23 08:53:51;;;;;;;23.47;15.67;;;;;;;3.17;100.00;152179.22;5106438;28;20446;-80
2022/01/23 08:56:26;;;;;;;22.97;15.67;;;;;;;3.26;100.00;152202.38;5058931;28;20836;-79
2022/01/23 08:59:03;;;;;;;21.63;15.13;;;;;;;3.28;100.00;152206.25;5057202;28;20491;-80
2022/01/23 09:01:39;;;;;;;22.07;16.47;;;;;;;3.29;100.00;152210.09;5055259;28;20504;-80
2022/01/23 09:04:16;;;;;;;24.40;15.23;;;;;;;3.32;100.00;152217.81;5071914;28;20456;-80
2022/01/23 09:06:52;;;;;;;23.47;15.33;;;;;;;3.35;100.00;152224.25;5076420;28;20438;-80
2022/01/23 09:09:31;;;;;;;24.27;13.70;;;;;;;3.28;100.00;152207.56;5103747;27;20445;-79
2022/01/23 09:12:20;;;;;;;25.63;17.50;;;;;;;3.34;100.00;152222.97;5073047;28;20441;-79
2022/01/23 09:14:58;;;;;;;29.63;22.80;;;;;;;3.35;100.00;152225.56;5071441;28;20977;-79
2022/01/23 09:17:35;;;;;;;22.27;16.60;;;;;;;3.40;100.00;152238.41;5057354;28;20483;-80
2022/01/23 09:20:11;;;;;;;20.60;14.67;;;;;;;3.47;100.00;152256.44;5057380;28;20878;-79
2022/01/23 09:22:46;;;;;;;20.30;15.67;;;;;;;3.50;100.00;152264.16;5055708;28;20466;-80
2022/01/23 09:25:22;;;;;;;22.87;16.17;;;;;;;3.55;100.00;152277.03;5056030;28;20449;-79
2022/01/23 09:28:00;;;;;;;20.80;14.77;;;;;;;3.61;100.00;152292.47;5072315;28;20558;-79
2022/01/23 09:30:39;;;;;;;29.83;17.20;;;;;;;3.63;100.00;152297.63;5055924;28;20441;-79
2022/01/23 09:33:14;;;;;;;25.73;15.27;;;;;;;3.64;100.00;152298.91;5056240;28;20442;-79
2022/01/23 09:35:49;;;;;;;24.17;16.53;;;;;;;3.62;100.00;152293.78;5086029;28;20460;-79
2022/01/23 09:38:25;;;;;;;25.60;16.27;;;;;;;3.68;100.00;152310.50;5071361;28;20441;-79
2022/01/23 09:41:02;;;;;;;20.57;14.70;;;;;;;3.72;100.00;152318.22;5105954;28;20446;-79
2022/01/23 09:43:40;;;;;;;21.57;15.00;;;;;;;3.64;100.00;152300.22;5072628;28;20971;-79
2022/01/23 09:46:17;;;;;;;18.13;13.20;;;;;;;3.71;100.00;152316.91;5056309;28;21006;-79
2022/01/23 09:48:53;;;;;;;16.13;12.23;;;;;;;3.73;100.00;152320.81;5071863;28;20437;-79
2022/01/23 09:51:29;;;;;;;17.47;13.13;;;;;;;3.81;100.00;152341.41;5068522;28;20476;-80
2022/01/23 09:54:05;;;;;;;20.90;15.20;;;;;;;3.86;100.00;152355.56;5052825;28;20475;-80
2022/01/23 09:56:42;;;;;;;27.10;20.00;;;;;;;3.89;100.00;152362.00;5070055;28;20519;-79
2022/01/23 09:59:19;;;;;;;22.67;16.50;;;;;;;3.92;100.00;152369.75;5056008;28;20438;-79
2022/01/23 10:01:56;;;;;;;22.60;15.33;;;;;;;3.85;100.00;152351.69;5056584;28;20797;-79
2022/01/23 10:04:32;;;;;;;19.63;13.77;;;;;;;3.76;100.00;152328.53;5054886;28;20434;-79
2022/01/23 10:07:08;;;;;;;14.50;10.90;;;;;;;3.77;100.00;152332.38;5070748;28;20860;-79
2022/01/23 10:09:44;;;;;;;19.13;12.87;;;;;;;3.60;100.00;152289.88;5063906;28;20444;-79
2022/01/23 10:12:20;;;;;;;15.83;10.73;;;;;;;3.65;100.00;152301.50;5072512;28;20453;-79
2022/01/23 10:14:57;;;;;;;16.13;11.37;;;;;;;3.78;100.00;152334.97;5085639;28;20848;-79
2022/01/23 10:17:34;;;;;;;17.80;11.30;;;;;;;3.91;100.00;152367.16;5104873;28;20449;-79
2022/01/23 10:20:12;;;;;;;13.60;9.23;;;;;;;3.91;100.00;152367.16;5070953;28;21010;-79
2022/01/23 10:22:50;;;;;;;11.90;9.17;;;;;;;3.91;100.00;152367.16;5088664;28;20875;-79
2022/01/23 10:25:28;;;;;;;17.23;12.93;;;;;;;3.89;100.00;152362.00;5104716;28;20425;-79
2022/01/23 10:28:06;;;;;;;14.50;11.60;;;;;;;3.91;100.00;152367.16;5055126;28;20453;-79
2022/01/23 10:30:45;;;;;;;13.73;10.57;;;;;;;3.91;100.00;152367.16;5070392;28;20453;-81
2022/01/23 10:33:24;;;;;;;16.13;9.90;;;;;;;3.92;100.00;152369.75;5061480;28;20479;-79
2022/01/23 10:36:03;;;;;;;15.90;11.20;;;;;;;3.95;100.00;152377.44;5052145;28;20440;-79
2022/01/23 10:38:52;;;;;;;13.67;9.60;;;;;;;4.08;100.00;152412.22;5066834;28;20484;-79
2022/01/23 10:41:44;;;;;;;15.10;10.50;;;;;;;3.89;100.00;152363.25;5055171;28;20775;-79
2022/01/23 10:47:44;;;;;;;14.13;9.73;;;;;;;3.84;100.00;152349.16;5070156;28;20935;-80
2022/01/23 10:50:24;;;;;;;16.93;12.10;;;;;;;3.84;100.00;152349.16;5075834;28;20469;-80
2022/01/23 10:53:00;;;;;;;16.43;11.30;;;;;;;3.88;100.00;152359.44;5070651;28;20473;-79
2022/01/23 10:55:37;;;;;;;16.20;12.00;;;;;;;3.84;100.00;152350.41;5069087;28;20454;-80
2022/01/23 10:58:19;;;;;;;15.70;10.50;;;;;;;3.90;100.00;152364.56;5069545;28;20863;-80
2022/01/23 11:01:06;;;;;;;14.60;9.27;;;;;;;3.93;100.00;152373.59;5069566;28;20967;-80
2022/01/23 11:03:42;;;;;;;14.47;10.17;;;;;;;3.88;100.00;152359.44;5070082;28;20509;-79
2022/01/23 11:06:18;;;;;;;17.40;10.87;;;;;;;3.98;100.00;152386.47;5051670;28;20501;-80
2022/01/23 11:09:07;;;;;;;12.37;10.20;;;;;;;4.02;100.00;152395.50;5065906;28;20442;-79
2022/01/23 11:11:47;;;;;;;16.07;11.97;;;;;;;4.02;100.00;152395.50;5092700;28;20457;-80
2022/01/23 11:17:23;;;;;;;18.37;11.37;;;;;;;4.03;100.00;152399.34;5055153;28;20532;-80
2022/01/23 11:20:00;;;;;;;13.60;11.00;;;;;;;3.94;100.00;152374.88;5070560;28;20437;-80
2022/01/23 11:22:38;;;;;;;16.27;10.40;;;;;;;3.96;100.00;152380.03;5073098;28;20472;-80
2022/01/23 11:25:14;;;;;;;16.03;10.47;;;;;;;3.97;100.00;152382.63;5055032;28;20920;-79
2022/01/23 11:27:49;;;;;;;14.67;10.53;;;;;;;4.00;100.00;152391.59;5071390;28;20437;-80
2022/01/23 11:30:35;;;;;;;16.33;11.70;;;;;;;4.03;100.00;152398.03;5070030;28;21034;-79
2022/01/23 11:33:13;;;;;;;14.97;11.03;;;;;;;4.05;100.00;152404.47;5052860;28;20434;-80
2022/01/23 11:35:49;;;;;;;18.40;11.60;;;;;;;4.26;100.00;152458.56;5069819;28;20441;-80
2022/01/23 11:38:26;;;;;;;13.53;10.30;;;;;;;4.35;100.00;152480.47;5057899;28;20941;-79
2022/01/23 11:55:34;;;;;;;14.17;10.13;;;;;;;4.03;100.00;152399.34;5100707;28;20442;-80
2022/01/23 11:58:35;;;;;;;15.13;10.50;;;;;;;4.01;100.00;152394.19;5067950;28;20445;-79
2022/01/23 12:01:18;;;;;;;16.80;9.90;;;;;;;4.06;100.00;152405.78;5069424;28;20453;-80
2022/01/23 12:04:16;;;;;;;11.77;8.43;;;;;;;4.04;100.00;152400.63;5103828;28;20481;-79
2022/01/23 12:07:20;;;;;;;15.00;8.83;;;;;;;4.03;100.00;152398.03;5104317;28;20445;-80
2022/01/23 12:10:18;;;;;;;13.87;9.57;;;;;;;4.06;100.00;152407.06;5063441;28;20453;-80
2022/01/23 12:13:44;;;;;;;16.10;10.60;;;;;;;4.17;100.00;152435.41;5069044;28;20449;-79
2022/01/23 12:16:26;;;;;;;16.43;12.00;;;;;;;4.19;100.00;152440.56;5071736;28;20449;-79
2022/01/23 12:19:17;;;;;;;13.70;9.77;;;;;;;4.16;100.00;152431.53;5069397;28;20932;-80
2022/01/23 12:21:54;;;;;;;17.30;11.97;;;;;;;4.22;100.00;152447.00;5053812;28;20444;-80
2022/01/23 12:24:30;;;;;;;15.53;10.70;;;;;;;4.20;100.00;152441.84;5052442;28;20430;-79
2022/01/23 12:27:18;;;;;;;15.77;10.80;;;;;;;4.21;100.00;152445.69;5069301;28;20447;-79
2022/01/23 12:29:56;;;;;;;11.20;8.87;;;;;;;4.26;100.00;152457.31;5067500;28;20430;-79
2022/01/23 12:32:32;;;;;;;11.60;9.37;;;;;;;4.30;100.00;152467.59;5069457;28;20453;-79
2022/01/23 12:35:10;;;;;;;12.40;10.00;;;;;;;4.30;99.26;152467.59;5045169;28;20441;-79
2022/01/23 12:38:09;;;;;;;10.83;9.03;;;;;;;4.46;100.00;152507.53;5068438;28;20442;-79
2022/01/23 12:40:46;;;;;;;15.27;10.17;;;;;;;4.45;100.00;152504.97;5072860;28;20841;-80
2022/01/23 12:43:25;;;;;;;13.67;9.93;;;;;;;4.44;98.53;152503.69;5056692;28;20560;-79
2022/01/23 12:46:05;;;;;;;15.00;11.07;;;;;;;4.41;99.01;152495.94;5072998;28;20486;-80
2022/01/23 12:48:43;;;;;;;13.23;9.40;;;;;;;4.51;98.45;152521.69;5072769;28;20796;-79
2022/01/23 12:51:42;;;;;;;15.13;10.47;;;;;;;4.40;97.57;152493.34;5106204;28;20441;-80
2022/01/23 12:54:30;;;;;;;13.80;10.30;;;;;;;4.34;97.29;152477.94;5070817;28;20437;-79
2022/01/23 12:57:12;;;;;;;13.47;10.20;;;;;;;4.36;99.22;152483.06;5057183;28;20445;-80
2022/01/23 12:59:51;;;;;;;15.97;11.57;;;;;;;4.54;99.30;152528.13;5056932;28;20442;-79
2022/01/23 13:02:36;;;;;;;14.87;11.10;;;;;;;4.48;98.34;152513.97;5087490;28;20975;-80
2022/01/23 13:05:14;;;;;;;11.50;8.87;;;;;;;4.50;98.28;152519.09;5073814;28;20422;-79
2022/01/23 13:08:05;;;;;;;12.23;8.70;;;;;;;4.48;96.64;152513.97;5105711;28;20453;-79
2022/01/23 13:11:09;;;;;;;11.93;8.33;;;;;;;4.48;95.75;152512.66;5081334;28;20541;-79
2022/01/23 13:13:58;;;;;;;10.77;8.17;;;;;;;4.41;95.90;152495.94;5086448;28;20463;-79
2022/01/23 13:16:39;;;;;;;11.87;8.70;;;;;;;4.46;96.40;152508.81;5051175;28;20548;-80
2022/01/23 13:30:49;;;;;;;11.13;7.33;;;;;;;4.50;93.68;152519.09;5068643;28;20484;-79
2022/01/23 13:33:25;;;;;;;8.87;6.43;;;;;;;4.46;89.65;152508.81;5106217;28;20884;-79
2022/01/23 13:36:08;;;;;;;8.20;6.47;;;;;;;4.56;89.29;152533.28;5104831;28;20449;-79
2022/01/23 13:38:44;;;;;;;10.00;7.07;;;;;;;4.48;90.00;152513.97;5086559;28;20485;-80
2022/01/23 13:41:25;;;;;;;12.00;8.13;;;;;;;4.44;90.88;152503.69;5040269;28;20796;-79
2022/01/23 13:52:42;;;;;;;7.17;6.33;;;;;;;4.39;89.27;152490.81;5073455;28;20537;-79
2022/01/23 14:01:18;;;;;;;8.70;7.00;;;;;;;4.52;89.31;152523.00;5049454;28;20446;-79
2022/01/23 14:03:54;;;;;;;9.33;7.63;;;;;;;4.53;90.83;152526.84;5089128;28;20680;-80
2022/01/23 14:06:30;;;;;;;9.80;7.00;;;;;;;4.54;90.19;152529.44;5104981;28;20442;-79
2022/01/23 14:09:09;;;;;;;12.80;7.73;;;;;;;4.48;90.32;152512.66;5070786;28;20438;-80
2022/01/23 14:11:45;;;;;;;6.57;5.47;;;;;;;4.53;87.67;152525.53;5066030;28;20450;-80
2022/01/23 14:14:23;;;;;;;8.87;5.57;;;;;;;4.50;85.98;152519.09;5103282;28;20473;-79
2022/01/23 14:17:13;;;;;;;5.90;4.97;;;;;;;4.46;85.39;152508.81;5054973;28;20774;-80
2022/01/23 14:20:01;;;;;;;5.30;3.83;;;;;;;4.46;84.78;152508.81;5055342;28;20453;-80
2022/01/23 14:22:38;;;;;;;5.50;4.23;;;;;;;4.46;83.39;152507.53;5070348;28;20478;-79
2022/01/23 14:25:17;;;;;;;5.33;3.47;;;;;;;4.47;82.83;152510.13;5088193;28;20824;-79
2022/01/23 14:28:03;;;;;;;4.87;3.30;;;;;;;4.49;80.49;152516.56;5104700;28;20457;-79
2022/01/23 14:30:43;;;;;;;5.60;4.87;;;;;;;4.35;82.62;152480.47;5087323;28;20421;-79
2022/01/23 14:33:23;;;;;;;5.57;4.03;;;;;;;4.34;83.35;152476.63;5103324;28;20442;-80
2022/01/23 14:35:58;;;;;;;6.40;4.60;;;;;;;4.38;84.80;152488.22;5102733;28;20450;-80
2022/01/23 14:38:33;;;;;;;4.23;3.60;;;;;;;4.46;81.12;152508.81;5071306;28;20450;-79
2022/01/23 14:41:10;;;;;;;6.10;4.43;;;;;;;4.42;82.12;152498.50;5070640;28;20534;-80
2022/01/23 14:43:46;;;;;;;7.23;5.77;;;;;;;4.41;82.34;152494.66;5070054;28;20556;-79
2022/01/23 14:46:22;;;;;;;5.77;5.13;;;;;;;4.37;82.70;152485.63;5102869;28;20434;-80
2022/01/23 14:49:09;;;;;;;5.40;4.20;;;;;;;4.23;81.94;152449.59;5053818;28;20445;-79
2022/01/23 14:51:45;;;;;;;5.00;4.23;;;;;;;4.39;80.77;152490.81;5103370;28;20529;-80
2022/01/23 14:54:22;;;;;;;4.53;3.40;;;;;;;4.47;79.96;152511.41;5071547;28;20418;-79
2022/01/23 14:57:00;;;;;;;5.10;3.97;;;;;;;4.43;80.34;152499.78;5069218;28;20434;-79
2022/01/23 14:59:37;;;;;;;4.13;3.20;;;;;;;4.39;80.45;152490.81;5084094;28;20913;-79
2022/01/23 15:02:14;;;;;;;5.23;3.33;;;;;;;4.42;80.42;152498.50;5102751;28;20452;-79